sensor_id;sensor_type;location;lat;lon;timestamp;temperature;humidity
19952;DHT22;10137;49.406;19.484;2022-11-15T00:01:07;0.80;99.90
19952;DHT22;10137;49.406;19.484;2022-11-15T00:03:36;0.80;99.90
19952;DHT22;10137;49.406;19.484;2022-11-15T00:06:04;0.80;99.90
19952;DHT22;10137;49.406;19.484;2022-11-15T00:08:32;0.80;99.90
19952;DHT22;10137;49.406;19.484;2022-11-15T00:11:04;0.90;99.90
19952;DHT22;10137;49.406;19.484;2022-11-15T00:13:31;0.90;99.90
19952;DHT22;10137;49.406;19.484;2022-11-15T00:15:59;0.90;99.90
19952;DHT22;10137;49.406;19.484;2022-11-15T00:18:27;0.90;99.90
19952;DHT22;10137;49.406;19.484;2022-11-15T00:20:54;0.70;99.90
19952;DHT22;10137;49.406;19.484;2022-11-15T00:23:23;0.70;99.90
19952;DHT22;10137;49.406;19.484;2022-11-15T00:25:56;0.70;99.90
19952;DHT22;10137;49.406;19.484;2022-11-15T00:28:27;0.70;99.90
19952;DHT22;10137;49.406;19.484;2022-11-15T00:31:00;0.70;99.90
19952;DHT22;10137;49.406;19.484;2022-11-15T00:33:29;0.70;99.90
19952;DHT22;10137;49.406;19.484;2022-11-15T00:36:01;0.60;99.90
19952;DHT22;10137;49.406;19.484;2022-11-15T00:38:31;0.60;99.90
19952;DHT22;10137;49.406;19.484;2022-11-15T00:41:01;0.60;99.90
19952;DHT22;10137;49.406;19.484;2022-11-15T00:43:31;0.60;99.90
19952;DHT22;10137;49.406;19.484;2022-11-15T00:45:59;0.60;99.90
19952;DHT22;10137;49.406;19.484;2022-11-15T00:48:26;0.60;99.90
19952;DHT22;10137;49.406;19.484;2022-11-15T00:50:53;0.50;99.90
19952;DHT22;10137;49.406;19.484;2022-11-15T00:53:20;0.50;99.90
19952;DHT22;10137;49.406;19.484;2022-11-15T00:55:48;0.50;99.90
19952;DHT22;10137;49.406;19.484;2022-11-15T00:58:15;0.40;99.90
19952;DHT22;10137;49.406;19.484;2022-11-15T01:00:44;0.40;99.90
19952;DHT22;10137;49.406;19.484;2022-11-15T01:03:11;0.40;99.90
19952;DHT22;10137;49.406;19.484;2022-11-15T01:05:40;0.40;99.90
19952;DHT22;10137;49.406;19.484;2022-11-15T01:08:12;0.40;99.90
19952;DHT22;10137;49.406;19.484;2022-11-15T01:10:39;0.40;99.90
19952;DHT22;10137;49.406;19.484;2022-11-15T01:13:07;0.40;99.90
19952;DHT22;10137;49.406;19.484;2022-11-15T01:15:38;0.30;99.90
19952;DHT22;10137;49.406;19.484;2022-11-15T01:18:11;0.40;99.90
19952;DHT22;10137;49.406;19.484;2022-11-15T01:20:40;0.30;99.90
19952;DHT22;10137;49.406;19.484;2022-11-15T01:23:09;0.30;99.90
19952;DHT22;10137;49.406;19.484;2022-11-15T01:25:39;0.30;99.90
19952;DHT22;10137;49.406;19.484;2022-11-15T01:28:06;0.40;99.90
19952;DHT22;10137;49.406;19.484;2022-11-15T01:30:35;0.30;99.90
19952;DHT22;10137;49.406;19.484;2022-11-15T01:33:02;0.20;99.90
19952;DHT22;10137;49.406;19.484;2022-11-15T01:35:31;0.20;99.90
19952;DHT22;10137;49.406;19.484;2022-11-15T01:37:58;0.30;99.90
19952;DHT22;10137;49.406;19.484;2022-11-15T01:40:27;0.20;99.90
19952;DHT22;10137;49.406;19.484;2022-11-15T01:42:55;0.30;99.90
19952;DHT22;10137;49.406;19.484;2022-11-15T01:45:25;0.20;99.90
19952;DHT22;10137;49.406;19.484;2022-11-15T01:47:55;0.20;99.90
19952;DHT22;10137;49.406;19.484;2022-11-15T01:50:24;0.10;99.90
19952;DHT22;10137;49.406;19.484;2022-11-15T01:52:55;0.10;99.90
19952;DHT22;10137;49.406;19.484;2022-11-15T01:55:25;0.10;99.90
19952;DHT22;10137;49.406;19.484;2022-11-15T01:57:58;0.10;99.90
19952;DHT22;10137;49.406;19.484;2022-11-15T02:00:26;0.00;99.90
19952;DHT22;10137;49.406;19.484;2022-11-15T02:02:53;0.00;99.90
19952;DHT22;10137;49.406;19.484;2022-11-15T02:05:21;-0.10;99.90
19952;DHT22;10137;49.406;19.484;2022-11-15T02:07:49;-0.10;99.90
19952;DHT22;10137;49.406;19.484;2022-11-15T02:10:20;-0.20;99.90
19952;DHT22;10137;49.406;19.484;2022-11-15T02:12:48;-0.20;99.90
19952;DHT22;10137;49.406;19.484;2022-11-15T02:15:16;-0.20;99.90
19952;DHT22;10137;49.406;19.484;2022-11-15T02:17:56;-0.30;99.90
19952;DHT22;10137;49.406;19.484;2022-11-15T02:23:40;-0.40;99.90
19952;DHT22;10137;49.406;19.484;2022-11-15T02:29:20;-0.50;99.90
19952;DHT22;10137;49.406;19.484;2022-11-15T02:31:59;-0.40;99.90
19952;DHT22;10137;49.406;19.484;2022-11-15T02:34:35;-0.40;99.90
19952;DHT22;10137;49.406;19.484;2022-11-15T02:37:15;-0.40;99.90
19952;DHT22;10137;49.406;19.484;2022-11-15T02:39:49;-0.40;99.90
19952;DHT22;10137;49.406;19.484;2022-11-15T02:42:21;-0.40;99.90
19952;DHT22;10137;49.406;19.484;2022-11-15T02:45:12;-0.40;99.90
19952;DHT22;10137;49.406;19.484;2022-11-15T02:47:45;-0.40;99.90
19952;DHT22;10137;49.406;19.484;2022-11-15T02:50:17;-0.40;99.90
19952;DHT22;10137;49.406;19.484;2022-11-15T02:52:47;-0.40;99.90
19952;DHT22;10137;49.406;19.484;2022-11-15T02:55:29;-0.30;99.90
19952;DHT22;10137;49.406;19.484;2022-11-15T03:01:12;-0.30;99.90
19952;DHT22;10137;49.406;19.484;2022-11-15T03:03:57;-0.40;99.90
19952;DHT22;10137;49.406;19.484;2022-11-15T03:06:35;-0.40;99.90
19952;DHT22;10137;49.406;19.484;2022-11-15T03:09:09;-0.40;99.90
19952;DHT22;10137;49.406;19.484;2022-11-15T03:11:44;-0.40;99.90
19952;DHT22;10137;49.406;19.484;2022-11-15T03:14:21;-0.40;99.90
19952;DHT22;10137;49.406;19.484;2022-11-15T03:16:57;-0.40;99.90
19952;DHT22;10137;49.406;19.484;2022-11-15T03:19:32;-0.40;99.90
19952;DHT22;10137;49.406;19.484;2022-11-15T03:22:04;-0.40;99.90
19952;DHT22;10137;49.406;19.484;2022-11-15T03:24:36;-0.40;99.90
19952;DHT22;10137;49.406;19.484;2022-11-15T03:27:06;-0.40;99.90
19952;DHT22;10137;49.406;19.484;2022-11-15T03:29:37;-0.40;99.90
19952;DHT22;10137;49.406;19.484;2022-11-15T03:32:11;-0.40;99.90
19952;DHT22;10137;49.406;19.484;2022-11-15T03:34:45;-0.40;99.90
19952;DHT22;10137;49.406;19.484;2022-11-15T03:37:16;-0.50;99.90
19952;DHT22;10137;49.406;19.484;2022-11-15T03:39:45;-0.50;99.90
19952;DHT22;10137;49.406;19.484;2022-11-15T03:42:21;-0.40;99.90
19952;DHT22;10137;49.406;19.484;2022-11-15T03:44:57;-0.40;99.90
19952;DHT22;10137;49.406;19.484;2022-11-15T03:47:31;-0.40;99.90
19952;DHT22;10137;49.406;19.484;2022-11-15T03:50:04;-0.50;99.90
19952;DHT22;10137;49.406;19.484;2022-11-15T03:52:35;-0.50;99.90
19952;DHT22;10137;49.406;19.484;2022-11-15T03:55:05;-0.50;99.90
19952;DHT22;10137;49.406;19.484;2022-11-15T03:57:35;-0.50;99.90
19952;DHT22;10137;49.406;19.484;2022-11-15T04:00:03;-0.50;99.90
19952;DHT22;10137;49.406;19.484;2022-11-15T04:02:30;-0.60;99.90
19952;DHT22;10137;49.406;19.484;2022-11-15T04:04:57;-0.60;99.90
19952;DHT22;10137;49.406;19.484;2022-11-15T04:07:27;-0.50;99.90
19952;DHT22;10137;49.406;19.484;2022-11-15T04:09:54;-0.50;99.90
19952;DHT22;10137;49.406;19.484;2022-11-15T04:12:33;-0.50;99.90
19952;DHT22;10137;49.406;19.484;2022-11-15T04:15:03;-0.60;99.90
19952;DHT22;10137;49.406;19.484;2022-11-15T04:17:40;-0.50;99.90
19952;DHT22;10137;49.406;19.484;2022-11-15T04:20:10;-0.60;99.90
19952;DHT22;10137;49.406;19.484;2022-11-15T04:22:59;-0.50;99.90
19952;DHT22;10137;49.406;19.484;2022-11-15T04:25:46;-0.50;99.90
19952;DHT22;10137;49.406;19.484;2022-11-15T04:28:16;-0.50;99.90
19952;DHT22;10137;49.406;19.484;2022-11-15T04:30:44;-0.50;99.90
19952;DHT22;10137;49.406;19.484;2022-11-15T04:33:11;-0.40;99.90
19952;DHT22;10137;49.406;19.484;2022-11-15T04:35:40;-0.50;99.90
19952;DHT22;10137;49.406;19.484;2022-11-15T04:38:11;-0.40;99.90
19952;DHT22;10137;49.406;19.484;2022-11-15T04:40:38;-0.40;99.90
19952;DHT22;10137;49.406;19.484;2022-11-15T04:43:06;-0.30;99.90
19952;DHT22;10137;49.406;19.484;2022-11-15T04:45:33;-0.30;99.90
19952;DHT22;10137;49.406;19.484;2022-11-15T04:48:00;-0.30;99.90
19952;DHT22;10137;49.406;19.484;2022-11-15T04:50:30;-0.30;99.90
19952;DHT22;10137;49.406;19.484;2022-11-15T04:52:58;-0.30;99.90
19952;DHT22;10137;49.406;19.484;2022-11-15T04:55:26;-0.30;99.90
19952;DHT22;10137;49.406;19.484;2022-11-15T04:58:00;-0.30;99.90
19952;DHT22;10137;49.406;19.484;2022-11-15T05:00:29;-0.30;99.90
19952;DHT22;10137;49.406;19.484;2022-11-15T05:02:59;-0.30;99.90
19952;DHT22;10137;49.406;19.484;2022-11-15T05:05:44;-0.30;99.90
19952;DHT22;10137;49.406;19.484;2022-11-15T05:08:11;-0.30;99.90
19952;DHT22;10137;49.406;19.484;2022-11-15T05:10:41;-0.30;99.90
19952;DHT22;10137;49.406;19.484;2022-11-15T05:13:17;-0.30;99.90
19952;DHT22;10137;49.406;19.484;2022-11-15T05:15:53;-0.40;99.90
19952;DHT22;10137;49.406;19.484;2022-11-15T05:18:22;-0.30;99.90
19952;DHT22;10137;49.406;19.484;2022-11-15T05:20:48;-0.30;99.90
19952;DHT22;10137;49.406;19.484;2022-11-15T05:23:17;-0.30;99.90
19952;DHT22;10137;49.406;19.484;2022-11-15T05:25:45;-0.30;99.90
19952;DHT22;10137;49.406;19.484;2022-11-15T05:28:12;-0.30;99.90
19952;DHT22;10137;49.406;19.484;2022-11-15T05:30:40;-0.30;99.90
19952;DHT22;10137;49.406;19.484;2022-11-15T05:33:07;-0.30;99.90
19952;DHT22;10137;49.406;19.484;2022-11-15T05:35:41;-0.30;99.90
19952;DHT22;10137;49.406;19.484;2022-11-15T05:38:09;-0.30;99.90
19952;DHT22;10137;49.406;19.484;2022-11-15T05:40:36;-0.30;99.90
19952;DHT22;10137;49.406;19.484;2022-11-15T05:43:05;-0.30;99.90
19952;DHT22;10137;49.406;19.484;2022-11-15T05:45:33;-0.40;99.90
19952;DHT22;10137;49.406;19.484;2022-11-15T05:48:03;-0.40;99.90
19952;DHT22;10137;49.406;19.484;2022-11-15T05:50:34;-0.40;99.90
19952;DHT22;10137;49.406;19.484;2022-11-15T05:53:09;-0.40;99.90
19952;DHT22;10137;49.406;19.484;2022-11-15T05:55:39;-0.40;99.90
19952;DHT22;10137;49.406;19.484;2022-11-15T05:58:10;-0.40;99.90
19952;DHT22;10137;49.406;19.484;2022-11-15T06:00:38;-0.30;99.90
19952;DHT22;10137;49.406;19.484;2022-11-15T06:03:08;-0.30;99.90
19952;DHT22;10137;49.406;19.484;2022-11-15T06:05:36;-0.30;99.90
19952;DHT22;10137;49.406;19.484;2022-11-15T06:08:04;-0.30;99.90
19952;DHT22;10137;49.406;19.484;2022-11-15T06:10:31;-0.20;99.90
19952;DHT22;10137;49.406;19.484;2022-11-15T06:13:03;-0.20;99.90
19952;DHT22;10137;49.406;19.484;2022-11-15T06:15:33;-0.10;99.90
19952;DHT22;10137;49.406;19.484;2022-11-15T06:18:00;-0.10;99.90
19952;DHT22;10137;49.406;19.484;2022-11-15T06:20:30;0.00;99.90
19952;DHT22;10137;49.406;19.484;2022-11-15T06:22:58;-0.10;99.90
19952;DHT22;10137;49.406;19.484;2022-11-15T06:25:25;0.00;99.90
19952;DHT22;10137;49.406;19.484;2022-11-15T06:27:53;0.00;99.90
19952;DHT22;10137;49.406;19.484;2022-11-15T06:30:20;0.00;99.90
19952;DHT22;10137;49.406;19.484;2022-11-15T06:32:49;0.00;99.90
19952;DHT22;10137;49.406;19.484;2022-11-15T06:35:17;0.00;99.90
19952;DHT22;10137;49.406;19.484;2022-11-15T06:37:44;0.00;99.90
19952;DHT22;10137;49.406;19.484;2022-11-15T06:40:11;0.10;99.90
19952;DHT22;10137;49.406;19.484;2022-11-15T06:42:38;0.10;99.90
19952;DHT22;10137;49.406;19.484;2022-11-15T06:45:06;0.10;99.90
19952;DHT22;10137;49.406;19.484;2022-11-15T06:47:33;0.10;99.90
19952;DHT22;10137;49.406;19.484;2022-11-15T06:50:01;0.10;99.90
19952;DHT22;10137;49.406;19.484;2022-11-15T06:52:28;0.20;99.90
19952;DHT22;10137;49.406;19.484;2022-11-15T06:54:58;0.20;99.90
19952;DHT22;10137;49.406;19.484;2022-11-15T06:57:25;0.20;99.90
19952;DHT22;10137;49.406;19.484;2022-11-15T06:59:51;0.20;99.90
19952;DHT22;10137;49.406;19.484;2022-11-15T07:02:19;0.30;99.90
19952;DHT22;10137;49.406;19.484;2022-11-15T07:04:46;0.30;99.90
19952;DHT22;10137;49.406;19.484;2022-11-15T07:07:14;0.30;99.90
19952;DHT22;10137;49.406;19.484;2022-11-15T07:09:41;0.30;99.90
19952;DHT22;10137;49.406;19.484;2022-11-15T07:12:08;0.30;99.90
19952;DHT22;10137;49.406;19.484;2022-11-15T07:14:35;0.30;99.90
19952;DHT22;10137;49.406;19.484;2022-11-15T07:17:03;0.30;99.90
19952;DHT22;10137;49.406;19.484;2022-11-15T07:19:31;0.30;99.90
19952;DHT22;10137;49.406;19.484;2022-11-15T07:21:58;0.40;99.90
19952;DHT22;10137;49.406;19.484;2022-11-15T07:24:26;0.40;99.90
19952;DHT22;10137;49.406;19.484;2022-11-15T07:26:53;0.40;99.90
19952;DHT22;10137;49.406;19.484;2022-11-15T07:29:20;0.50;99.90
19952;DHT22;10137;49.406;19.484;2022-11-15T07:31:47;0.50;99.90
19952;DHT22;10137;49.406;19.484;2022-11-15T07:34:14;0.50;99.90
19952;DHT22;10137;49.406;19.484;2022-11-15T07:36:41;0.50;99.90
19952;DHT22;10137;49.406;19.484;2022-11-15T07:39:08;0.50;99.90
19952;DHT22;10137;49.406;19.484;2022-11-15T07:41:36;0.60;99.90
19952;DHT22;10137;49.406;19.484;2022-11-15T07:44:04;0.60;99.90
19952;DHT22;10137;49.406;19.484;2022-11-15T07:46:31;0.70;99.90
19952;DHT22;10137;49.406;19.484;2022-11-15T07:48:58;0.80;99.90
19952;DHT22;10137;49.406;19.484;2022-11-15T07:51:25;0.70;99.90
19952;DHT22;10137;49.406;19.484;2022-11-15T07:53:54;0.70;99.90
19952;DHT22;10137;49.406;19.484;2022-11-15T07:56:21;0.70;99.90
19952;DHT22;10137;49.406;19.484;2022-11-15T07:58:50;0.80;99.90
19952;DHT22;10137;49.406;19.484;2022-11-15T08:01:19;0.70;99.90
19952;DHT22;10137;49.406;19.484;2022-11-15T08:03:46;0.80;99.90
19952;DHT22;10137;49.406;19.484;2022-11-15T08:06:13;0.90;99.90
19952;DHT22;10137;49.406;19.484;2022-11-15T08:08:41;0.90;99.90
19952;DHT22;10137;49.406;19.484;2022-11-15T08:11:08;0.90;99.90
19952;DHT22;10137;49.406;19.484;2022-11-15T08:13:35;0.90;99.90
19952;DHT22;10137;49.406;19.484;2022-11-15T08:16:04;0.80;99.90
19952;DHT22;10137;49.406;19.484;2022-11-15T08:18:31;0.80;99.90
19952;DHT22;10137;49.406;19.484;2022-11-15T08:20:59;0.80;99.90
19952;DHT22;10137;49.406;19.484;2022-11-15T08:23:26;0.80;99.90
19952;DHT22;10137;49.406;19.484;2022-11-15T08:25:59;0.90;99.90
19952;DHT22;10137;49.406;19.484;2022-11-15T08:28:26;0.90;99.90
19952;DHT22;10137;49.406;19.484;2022-11-15T08:30:53;0.90;99.90
19952;DHT22;10137;49.406;19.484;2022-11-15T08:33:22;1.00;99.90
19952;DHT22;10137;49.406;19.484;2022-11-15T08:35:49;1.00;99.90
19952;DHT22;10137;49.406;19.484;2022-11-15T08:38:16;1.00;99.90
19952;DHT22;10137;49.406;19.484;2022-11-15T08:40:43;1.00;99.90
19952;DHT22;10137;49.406;19.484;2022-11-15T08:43:10;1.10;99.90
19952;DHT22;10137;49.406;19.484;2022-11-15T08:45:37;1.20;99.90
19952;DHT22;10137;49.406;19.484;2022-11-15T08:48:04;1.30;99.90
19952;DHT22;10137;49.406;19.484;2022-11-15T08:50:33;1.20;99.90
19952;DHT22;10137;49.406;19.484;2022-11-15T08:53:04;1.20;99.90
19952;DHT22;10137;49.406;19.484;2022-11-15T08:55:31;1.30;99.90
19952;DHT22;10137;49.406;19.484;2022-11-15T08:57:58;1.30;99.90
19952;DHT22;10137;49.406;19.484;2022-11-15T09:00:25;1.30;99.90
19952;DHT22;10137;49.406;19.484;2022-11-15T09:02:53;1.40;99.90
19952;DHT22;10137;49.406;19.484;2022-11-15T09:05:20;1.40;99.90
19952;DHT22;10137;49.406;19.484;2022-11-15T09:07:52;1.40;99.90
19952;DHT22;10137;49.406;19.484;2022-11-15T09:10:19;1.50;99.90
19952;DHT22;10137;49.406;19.484;2022-11-15T09:12:46;1.60;99.90
19952;DHT22;10137;49.406;19.484;2022-11-15T09:15:15;1.70;99.90
19952;DHT22;10137;49.406;19.484;2022-11-15T09:17:42;1.80;99.90
19952;DHT22;10137;49.406;19.484;2022-11-15T09:20:09;1.90;99.90
19952;DHT22;10137;49.406;19.484;2022-11-15T09:22:37;2.00;99.90
19952;DHT22;10137;49.406;19.484;2022-11-15T09:25:07;2.20;99.90
19952;DHT22;10137;49.406;19.484;2022-11-15T09:27:34;2.30;99.90
19952;DHT22;10137;49.406;19.484;2022-11-15T09:30:01;2.40;99.90
19952;DHT22;10137;49.406;19.484;2022-11-15T09:32:28;2.50;99.90
19952;DHT22;10137;49.406;19.484;2022-11-15T09:34:56;2.60;99.90
19952;DHT22;10137;49.406;19.484;2022-11-15T09:37:23;2.80;99.90
19952;DHT22;10137;49.406;19.484;2022-11-15T09:39:50;2.90;99.90
19952;DHT22;10137;49.406;19.484;2022-11-15T09:42:39;3.00;99.90
19952;DHT22;10137;49.406;19.484;2022-11-15T09:45:17;3.10;99.90
19952;DHT22;10137;49.406;19.484;2022-11-15T09:48:20;3.20;99.90
19952;DHT22;10137;49.406;19.484;2022-11-15T09:50:51;3.30;99.90
19952;DHT22;10137;49.406;19.484;2022-11-15T09:53:24;3.30;99.90
19952;DHT22;10137;49.406;19.484;2022-11-15T09:55:58;3.40;99.90
19952;DHT22;10137;49.406;19.484;2022-11-15T09:58:34;3.40;99.90
19952;DHT22;10137;49.406;19.484;2022-11-15T10:01:06;3.40;99.90
19952;DHT22;10137;49.406;19.484;2022-11-15T10:03:37;3.40;99.90
19952;DHT22;10137;49.406;19.484;2022-11-15T10:06:13;3.30;99.90
19952;DHT22;10137;49.406;19.484;2022-11-15T10:08:50;3.30;99.90
19952;DHT22;10137;49.406;19.484;2022-11-15T10:11:20;3.40;99.90
19952;DHT22;10137;49.406;19.484;2022-11-15T10:13:52;3.40;99.90
19952;DHT22;10137;49.406;19.484;2022-11-15T10:16:47;3.40;99.90
19952;DHT22;10137;49.406;19.484;2022-11-15T10:19:23;3.40;99.90
19952;DHT22;10137;49.406;19.484;2022-11-15T10:22:00;3.40;99.90
19952;DHT22;10137;49.406;19.484;2022-11-15T10:24:34;3.40;99.90
19952;DHT22;10137;49.406;19.484;2022-11-15T10:27:07;3.40;99.90
19952;DHT22;10137;49.406;19.484;2022-11-15T10:29:43;3.50;99.90
19952;DHT22;10137;49.406;19.484;2022-11-15T10:32:11;3.50;99.90
19952;DHT22;10137;49.406;19.484;2022-11-15T10:34:38;3.60;99.90
19952;DHT22;10137;49.406;19.484;2022-11-15T10:37:05;3.60;99.90
19952;DHT22;10137;49.406;19.484;2022-11-15T10:39:32;3.70;99.90
19952;DHT22;10137;49.406;19.484;2022-11-15T10:42:15;3.80;99.90
19952;DHT22;10137;49.406;19.484;2022-11-15T10:44:45;3.80;99.90
19952;DHT22;10137;49.406;19.484;2022-11-15T10:47:26;3.90;99.90
19952;DHT22;10137;49.406;19.484;2022-11-15T10:50:03;4.00;99.90
19952;DHT22;10137;49.406;19.484;2022-11-15T10:52:33;4.20;99.90
19952;DHT22;10137;49.406;19.484;2022-11-15T10:55:12;4.30;99.90
19952;DHT22;10137;49.406;19.484;2022-11-15T10:57:51;4.50;99.90
19952;DHT22;10137;49.406;19.484;2022-11-15T11:00:32;4.80;99.90
19952;DHT22;10137;49.406;19.484;2022-11-15T11:03:01;5.20;99.90
19952;DHT22;10137;49.406;19.484;2022-11-15T11:05:30;5.50;99.90
19952;DHT22;10137;49.406;19.484;2022-11-15T11:08:02;5.70;99.90
19952;DHT22;10137;49.406;19.484;2022-11-15T11:10:30;5.90;99.90
19952;DHT22;10137;49.406;19.484;2022-11-15T11:13:12;6.00;99.90
19952;DHT22;10137;49.406;19.484;2022-11-15T11:15:44;6.00;99.90
19952;DHT22;10137;49.406;19.484;2022-11-15T11:18:18;5.90;99.90
19952;DHT22;10137;49.406;19.484;2022-11-15T11:20:51;5.90;99.90
19952;DHT22;10137;49.406;19.484;2022-11-15T11:23:34;5.80;99.90
19952;DHT22;10137;49.406;19.484;2022-11-15T11:26:30;5.80;99.90
19952;DHT22;10137;49.406;19.484;2022-11-15T11:29:12;5.80;99.90
19952;DHT22;10137;49.406;19.484;2022-11-15T11:31:51;5.80;99.90
19952;DHT22;10137;49.406;19.484;2022-11-15T11:34:29;5.80;99.90
19952;DHT22;10137;49.406;19.484;2022-11-15T11:37:03;5.80;99.90
19952;DHT22;10137;49.406;19.484;2022-11-15T11:39:42;5.80;99.90
19952;DHT22;10137;49.406;19.484;2022-11-15T11:42:15;5.80;99.90
19952;DHT22;10137;49.406;19.484;2022-11-15T11:44:53;5.80;99.90
19952;DHT22;10137;49.406;19.484;2022-11-15T11:47:31;5.80;99.90
19952;DHT22;10137;49.406;19.484;2022-11-15T11:50:02;5.80;99.90
19952;DHT22;10137;49.406;19.484;2022-11-15T11:52:41;5.80;99.90
19952;DHT22;10137;49.406;19.484;2022-11-15T11:55:15;5.80;99.90
19952;DHT22;10137;49.406;19.484;2022-11-15T11:57:48;5.90;99.90
19952;DHT22;10137;49.406;19.484;2022-11-15T12:00:20;5.90;99.90
19952;DHT22;10137;49.406;19.484;2022-11-15T12:03:00;5.90;99.90
19952;DHT22;10137;49.406;19.484;2022-11-15T12:05:35;5.90;99.90
19952;DHT22;10137;49.406;19.484;2022-11-15T12:08:17;5.90;99.90
19952;DHT22;10137;49.406;19.484;2022-11-15T12:10:50;5.90;99.90
19952;DHT22;10137;49.406;19.484;2022-11-15T12:13:23;5.90;99.90
19952;DHT22;10137;49.406;19.484;2022-11-15T12:16:02;6.00;99.90
19952;DHT22;10137;49.406;19.484;2022-11-15T12:18:33;6.00;99.90
19952;DHT22;10137;49.406;19.484;2022-11-15T12:21:04;6.00;99.90
19952;DHT22;10137;49.406;19.484;2022-11-15T12:23:35;6.00;99.90
19952;DHT22;10137;49.406;19.484;2022-11-15T12:26:09;6.00;99.90
19952;DHT22;10137;49.406;19.484;2022-11-15T12:28:41;6.00;99.90
19952;DHT22;10137;49.406;19.484;2022-11-15T12:31:12;6.00;99.90
19952;DHT22;10137;49.406;19.484;2022-11-15T12:33:44;6.00;99.90
19952;DHT22;10137;49.406;19.484;2022-11-15T12:36:30;6.10;99.90
19952;DHT22;10137;49.406;19.484;2022-11-15T12:39:03;6.10;99.90
19952;DHT22;10137;49.406;19.484;2022-11-15T12:41:33;6.10;99.90
19952;DHT22;10137;49.406;19.484;2022-11-15T12:44:02;6.20;99.90
19952;DHT22;10137;49.406;19.484;2022-11-15T12:47:00;6.20;99.90
19952;DHT22;10137;49.406;19.484;2022-11-15T12:49:48;6.20;99.90
19952;DHT22;10137;49.406;19.484;2022-11-15T12:52:16;6.20;99.90
19952;DHT22;10137;49.406;19.484;2022-11-15T12:58:26;6.30;99.90
19952;DHT22;10137;49.406;19.484;2022-11-15T13:00:54;6.40;99.90
19952;DHT22;10137;49.406;19.484;2022-11-15T13:03:26;6.40;99.90
19952;DHT22;10137;49.406;19.484;2022-11-15T13:06:02;6.30;99.90
19952;DHT22;10137;49.406;19.484;2022-11-15T13:08:42;6.40;99.90
19952;DHT22;10137;49.406;19.484;2022-11-15T13:11:44;6.40;99.90
19952;DHT22;10137;49.406;19.484;2022-11-15T13:14:41;6.40;99.90
19952;DHT22;10137;49.406;19.484;2022-11-15T13:17:24;6.40;99.90
19952;DHT22;10137;49.406;19.484;2022-11-15T13:19:59;6.40;99.90
19952;DHT22;10137;49.406;19.484;2022-11-15T13:22:38;6.50;99.90
19952;DHT22;10137;49.406;19.484;2022-11-15T13:25:26;6.50;99.90
19952;DHT22;10137;49.406;19.484;2022-11-15T13:27:54;6.50;99.90
19952;DHT22;10137;49.406;19.484;2022-11-15T13:30:24;6.50;99.90
19952;DHT22;10137;49.406;19.484;2022-11-15T13:32:53;6.60;99.90
19952;DHT22;10137;49.406;19.484;2022-11-15T13:35:22;6.60;99.90
19952;DHT22;10137;49.406;19.484;2022-11-15T13:37:52;6.70;99.90
19952;DHT22;10137;49.406;19.484;2022-11-15T13:40:23;6.70;99.90
19952;DHT22;10137;49.406;19.484;2022-11-15T13:42:51;6.80;99.90
19952;DHT22;10137;49.406;19.484;2022-11-15T13:45:18;6.80;99.90
19952;DHT22;10137;49.406;19.484;2022-11-15T13:47:51;6.90;99.90
19952;DHT22;10137;49.406;19.484;2022-11-15T13:50:21;6.90;99.90
19952;DHT22;10137;49.406;19.484;2022-11-15T13:52:52;6.90;99.90
19952;DHT22;10137;49.406;19.484;2022-11-15T13:55:21;6.90;99.90
19952;DHT22;10137;49.406;19.484;2022-11-15T13:57:52;7.00;99.90
19952;DHT22;10137;49.406;19.484;2022-11-15T14:00:32;7.00;99.90
19952;DHT22;10137;49.406;19.484;2022-11-15T14:03:25;7.00;99.90
19952;DHT22;10137;49.406;19.484;2022-11-15T14:06:08;7.00;99.90
19952;DHT22;10137;49.406;19.484;2022-11-15T14:08:40;7.00;99.90
19952;DHT22;10137;49.406;19.484;2022-11-15T14:11:16;7.00;99.90
19952;DHT22;10137;49.406;19.484;2022-11-15T14:14:01;7.00;99.90
19952;DHT22;10137;49.406;19.484;2022-11-15T14:16:33;7.10;99.90
19952;DHT22;10137;49.406;19.484;2022-11-15T14:19:01;7.10;99.90
19952;DHT22;10137;49.406;19.484;2022-11-15T14:21:29;7.10;99.90
19952;DHT22;10137;49.406;19.484;2022-11-15T14:24:15;7.10;99.90
19952;DHT22;10137;49.406;19.484;2022-11-15T14:26:44;7.10;99.90
19952;DHT22;10137;49.406;19.484;2022-11-15T14:29:24;7.10;99.90
19952;DHT22;10137;49.406;19.484;2022-11-15T14:31:51;7.10;99.90
19952;DHT22;10137;49.406;19.484;2022-11-15T14:34:18;7.20;99.90
19952;DHT22;10137;49.406;19.484;2022-11-15T14:36:47;7.20;99.90
19952;DHT22;10137;49.406;19.484;2022-11-15T14:39:15;7.10;99.90
19952;DHT22;10137;49.406;19.484;2022-11-15T14:41:42;7.10;99.90
19952;DHT22;10137;49.406;19.484;2022-11-15T14:44:10;7.10;99.90
19952;DHT22;10137;49.406;19.484;2022-11-15T14:46:37;7.10;99.90
19952;DHT22;10137;49.406;19.484;2022-11-15T14:49:05;7.10;99.90
19952;DHT22;10137;49.406;19.484;2022-11-15T14:51:32;7.10;99.90
19952;DHT22;10137;49.406;19.484;2022-11-15T14:53:59;7.20;99.90
19952;DHT22;10137;49.406;19.484;2022-11-15T14:56:27;7.30;99.90
19952;DHT22;10137;49.406;19.484;2022-11-15T14:58:55;7.30;99.90
19952;DHT22;10137;49.406;19.484;2022-11-15T15:01:24;7.40;99.90
19952;DHT22;10137;49.406;19.484;2022-11-15T15:03:51;7.40;99.90
19952;DHT22;10137;49.406;19.484;2022-11-15T15:06:21;7.50;99.90
19952;DHT22;10137;49.406;19.484;2022-11-15T15:08:48;7.50;99.90
19952;DHT22;10137;49.406;19.484;2022-11-15T15:11:21;7.50;99.90
19952;DHT22;10137;49.406;19.484;2022-11-15T15:13:51;7.40;99.90
19952;DHT22;10137;49.406;19.484;2022-11-15T15:16:19;7.30;99.90
19952;DHT22;10137;49.406;19.484;2022-11-15T15:18:46;7.30;99.90
19952;DHT22;10137;49.406;19.484;2022-11-15T15:21:20;7.30;99.90
19952;DHT22;10137;49.406;19.484;2022-11-15T15:23:47;7.30;99.90
19952;DHT22;10137;49.406;19.484;2022-11-15T15:26:15;7.30;99.90
19952;DHT22;10137;49.406;19.484;2022-11-15T15:28:41;7.30;99.90
19952;DHT22;10137;49.406;19.484;2022-11-15T15:31:10;7.20;99.90
19952;DHT22;10137;49.406;19.484;2022-11-15T15:33:37;7.20;99.90
19952;DHT22;10137;49.406;19.484;2022-11-15T15:36:05;7.20;99.90
19952;DHT22;10137;49.406;19.484;2022-11-15T15:38:32;7.20;99.90
19952;DHT22;10137;49.406;19.484;2022-11-15T15:40:59;7.10;99.90
19952;DHT22;10137;49.406;19.484;2022-11-15T15:43:28;7.10;99.90
19952;DHT22;10137;49.406;19.484;2022-11-15T15:45:55;7.10;99.90
19952;DHT22;10137;49.406;19.484;2022-11-15T15:48:24;7.10;99.90
19952;DHT22;10137;49.406;19.484;2022-11-15T15:50:50;7.00;99.90
19952;DHT22;10137;49.406;19.484;2022-11-15T15:53:18;7.00;99.90
19952;DHT22;10137;49.406;19.484;2022-11-15T15:55:45;7.00;99.90
19952;DHT22;10137;49.406;19.484;2022-11-15T15:58:12;7.00;99.90
19952;DHT22;10137;49.406;19.484;2022-11-15T16:00:39;7.00;99.90
19952;DHT22;10137;49.406;19.484;2022-11-15T16:03:06;7.00;99.90
19952;DHT22;10137;49.406;19.484;2022-11-15T16:05:34;7.00;99.90